SAS2836 EKCH-GCLP
Flight info
| Callsign | SAS2836 |
|---|---|
| Flight time | 4h 45m |
| Altitude | 40000 |
| Route | LANGO2A LANGO DCT RAXLU DCT EKERN DCT EMMUN DCT SISGA DCT KOVIN DCT DUCRA UM728 RESMI UN857 DISAK DCT ARKIP DCT ARNAV DCT LMG DCT UVELI DCT OSMOB DCT VAVIX DCT NETUK DCT PPN DCT NOLSA DCT ALEPO DCT VASUM DCT BANEV DCT BAN DCT GOTOR DCT KAMPO DCT MONTO DCT MOLIN DCT HIJ DCT SVL DCT CLANA DCT KORNO UN857 TERTO TERTO9Z |
| Aircraft | A359/H-SABDE1E3FGHIJ1J2J3J4J5M1P2RWXYZ/LB2D1 |
Departure
| Time | 2026-04-26 11:35 |
|---|---|
| Airport | Copenhagen Kastrup Airport (EKCH) |
Arrival
| Time | 2026-04-26 16:20 |
|---|---|
| Airport | Gran Canaria Airport (GCLP) |
| Time | Latitude | Longitude | Altitude | Speed | Heading |
|---|---|---|---|---|---|
| 2026-04-26 11:03 | 55.62508 | 12.65065 | 26 ft | 0 kts | 278° |
| 2026-04-26 11:21 | 55.62508 | 12.65073 | 29 ft | 4 kts | 276° |
| 2026-04-26 11:21 | 55.62508 | 12.65119 | 32 ft | 4 kts | 250° |
| 2026-04-26 11:22 | 55.62522 | 12.65158 | 31 ft | 4 kts | 216° |
| 2026-04-26 11:22 | 55.62545 | 12.65176 | 31 ft | 4 kts | 184° |
| 2026-04-26 11:22 | 55.62555 | 12.65177 | 30 ft | 0 kts | 175° |
| 2026-04-26 11:27 | 55.62534 | 12.65179 | 29 ft | 5 kts | 176° |
| 2026-04-26 11:27 | 55.62492 | 12.65183 | 29 ft | 8 kts | 178° |
| 2026-04-26 11:28 | 55.62420 | 12.65188 | 27 ft | 12 kts | 177° |
| 2026-04-26 11:28 | 55.62332 | 12.65195 | 28 ft | 14 kts | 178° |
| 2026-04-26 11:28 | 55.62231 | 12.65186 | 29 ft | 15 kts | 195° |
| 2026-04-26 11:28 | 55.62166 | 12.65129 | 31 ft | 7 kts | 212° |
| 2026-04-26 11:29 | 55.62117 | 12.65075 | 30 ft | 10 kts | 213° |
| 2026-04-26 11:29 | 55.62041 | 12.64987 | 27 ft | 15 kts | 213° |
| 2026-04-26 11:29 | 55.61940 | 12.64870 | 28 ft | 20 kts | 213° |
| 2026-04-26 11:29 | 55.61831 | 12.64746 | 29 ft | 17 kts | 212° |
| 2026-04-26 11:30 | 55.61725 | 12.64625 | 31 ft | 19 kts | 213° |
| 2026-04-26 11:30 | 55.61647 | 12.64535 | 30 ft | 21 kts | 213° |
| 2026-04-26 11:30 | 55.61514 | 12.64382 | 29 ft | 9 kts | 213° |
| 2026-04-26 11:30 | 55.61450 | 12.64309 | 28 ft | 13 kts | 213° |
| 2026-04-26 11:31 | 55.61361 | 12.64206 | 25 ft | 17 kts | 212° |
| 2026-04-26 11:31 | 55.61255 | 12.64085 | 26 ft | 19 kts | 214° |
| 2026-04-26 11:31 | 55.61144 | 12.63953 | 27 ft | 17 kts | 213° |
| 2026-04-26 11:31 | 55.61039 | 12.63834 | 29 ft | 19 kts | 213° |
| 2026-04-26 11:32 | 55.60938 | 12.63717 | 27 ft | 16 kts | 213° |
| 2026-04-26 11:32 | 55.60850 | 12.63616 | 27 ft | 8 kts | 213° |
| 2026-04-26 11:32 | 55.60797 | 12.63603 | 28 ft | 8 kts | 165° |
| 2026-04-26 11:32 | 55.60753 | 12.63659 | 30 ft | 9 kts | 134° |
| 2026-04-26 11:33 | 55.60709 | 12.63748 | 31 ft | 10 kts | 128° |
| 2026-04-26 11:33 | 55.60685 | 12.63836 | 32 ft | 3 kts | 110° |
| 2026-04-26 11:33 | 55.60689 | 12.63881 | 33 ft | 6 kts | 65° |
| 2026-04-26 11:33 | 55.60721 | 12.63944 | 32 ft | 8 kts | 42° |
| 2026-04-26 11:34 | 55.60729 | 12.63956 | 32 ft | 4 kts | 42° |
| 2026-04-26 11:34 | 55.60862 | 12.64162 | 31 ft | 57 kts | 41° |
| 2026-04-26 11:34 | 55.61336 | 12.64895 | 28 ft | 121 kts | 41° |
| 2026-04-26 11:34 | 55.62100 | 12.66079 | 201 ft | 160 kts | 39° |
| 2026-04-26 11:35 | 55.62931 | 12.67366 | 995 ft | 157 kts | 38° |
| 2026-04-26 11:35 | 55.63752 | 12.68717 | 1624 ft | 170 kts | 39° |
| 2026-04-26 11:35 | 55.64666 | 12.70272 | 1970 ft | 194 kts | 40° |
| 2026-04-26 11:35 | 55.65682 | 12.72057 | 2367 ft | 216 kts | 41° |
| 2026-04-26 11:36 | 55.66620 | 12.74345 | 2704 ft | 246 kts | 62° |
| 2026-04-26 11:36 | 55.66957 | 12.77398 | 3257 ft | 267 kts | 92° |
| 2026-04-26 11:36 | 55.66397 | 12.80560 | 4103 ft | 273 kts | 121° |
| 2026-04-26 11:36 | 55.65041 | 12.82916 | 4872 ft | 278 kts | 151° |
| 2026-04-26 11:37 | 55.63206 | 12.83911 | 5719 ft | 279 kts | 179° |
| 2026-04-26 11:37 | 55.61266 | 12.83608 | 6503 ft | 282 kts | 193° |
| 2026-04-26 11:37 | 55.59374 | 12.82623 | 7301 ft | 284 kts | 206° |
| 2026-04-26 11:37 | 55.57698 | 12.80799 | 8151 ft | 283 kts | 224° |
| 2026-04-26 11:38 | 55.56406 | 12.78219 | 9044 ft | 279 kts | 242° |
| 2026-04-26 11:38 | 55.55480 | 12.75229 | 9977 ft | 277 kts | 251° |
| 2026-04-26 11:38 | 55.54656 | 12.72142 | 10820 ft | 280 kts | 250° |
| 2026-04-26 11:38 | 55.53760 | 12.68990 | 11423 ft | 293 kts | 249° |
| 2026-04-26 11:39 | 55.52781 | 12.65752 | 11879 ft | 312 kts | 248° |
| 2026-04-26 11:39 | 55.51691 | 12.62301 | 12237 ft | 332 kts | 246° |
| 2026-04-26 11:39 | 55.50507 | 12.58675 | 12656 ft | 349 kts | 246° |
| 2026-04-26 11:39 | 55.49297 | 12.54918 | 13333 ft | 355 kts | 247° |
| 2026-04-26 11:40 | 55.48109 | 12.51072 | 14097 ft | 358 kts | 248° |
| 2026-04-26 11:40 | 55.46937 | 12.47206 | 14950 ft | 357 kts | 249° |
| 2026-04-26 11:40 | 55.45772 | 12.43356 | 15815 ft | 356 kts | 249° |
| 2026-04-26 11:40 | 55.44596 | 12.39492 | 16506 ft | 360 kts | 249° |
| 2026-04-26 11:41 | 55.43383 | 12.35596 | 17203 ft | 364 kts | 248° |
| 2026-04-26 11:42 | 55.34461 | 12.07609 | 22020 ft | 384 kts | 247° |
| 2026-04-26 11:43 | 55.33128 | 12.03507 | 22615 ft | 389 kts | 246° |
| 2026-04-26 11:43 | 55.31762 | 11.99378 | 23238 ft | 393 kts | 246° |
| 2026-04-26 11:43 | 55.30405 | 11.95190 | 23884 ft | 396 kts | 247° |
| 2026-04-26 11:43 | 55.29072 | 11.90934 | 24428 ft | 398 kts | 248° |
| 2026-04-26 11:44 | 55.27744 | 11.86660 | 24970 ft | 401 kts | 246° |
| 2026-04-26 11:44 | 55.26345 | 11.82406 | 25507 ft | 404 kts | 246° |
| 2026-04-26 11:44 | 55.24930 | 11.78131 | 26056 ft | 406 kts | 246° |
| 2026-04-26 11:44 | 55.23501 | 11.73842 | 26611 ft | 408 kts | 246° |
| 2026-04-26 11:45 | 55.22079 | 11.69524 | 27141 ft | 410 kts | 246° |
| 2026-04-26 11:45 | 55.20668 | 11.65182 | 27689 ft | 411 kts | 246° |
| 2026-04-26 11:45 | 55.19265 | 11.60805 | 28210 ft | 413 kts | 246° |
| 2026-04-26 11:45 | 55.17867 | 11.56371 | 28641 ft | 417 kts | 246° |
| 2026-04-26 11:46 | 55.16490 | 11.51948 | 29060 ft | 421 kts | 246° |
| 2026-04-26 11:46 | 55.15025 | 11.47421 | 29605 ft | 423 kts | 245° |
| 2026-04-26 11:46 | 55.13553 | 11.42964 | 30113 ft | 425 kts | 245° |
| 2026-04-26 11:46 | 55.12091 | 11.38534 | 30551 ft | 427 kts | 245° |
| 2026-04-26 11:47 | 55.10602 | 11.34013 | 30915 ft | 430 kts | 245° |
| 2026-04-26 11:47 | 55.09107 | 11.29472 | 31280 ft | 432 kts | 245° |
| 2026-04-26 11:47 | 55.07605 | 11.24912 | 31660 ft | 434 kts | 245° |
| 2026-04-26 11:47 | 55.06094 | 11.20334 | 32014 ft | 437 kts | 245° |
| 2026-04-26 11:48 | 55.04574 | 11.15733 | 32375 ft | 439 kts | 245° |
| 2026-04-26 11:48 | 55.03044 | 11.11108 | 32718 ft | 441 kts | 245° |
| 2026-04-26 11:48 | 55.01508 | 11.06473 | 33025 ft | 443 kts | 244° |
| 2026-04-26 11:48 | 54.99960 | 11.01813 | 33359 ft | 444 kts | 244° |
| 2026-04-26 11:49 | 54.98400 | 10.97126 | 33678 ft | 446 kts | 244° |
| 2026-04-26 11:49 | 54.96860 | 10.92507 | 33959 ft | 448 kts | 244° |
| 2026-04-26 11:49 | 54.95287 | 10.87797 | 34260 ft | 450 kts | 244° |
| 2026-04-26 11:49 | 54.93701 | 10.83096 | 34516 ft | 452 kts | 243° |
| 2026-04-26 11:50 | 54.91987 | 10.78463 | 34711 ft | 456 kts | 240° |
| 2026-04-26 11:50 | 54.90180 | 10.73906 | 34946 ft | 458 kts | 239° |
| 2026-04-26 11:50 | 54.88337 | 10.69374 | 35233 ft | 458 kts | 239° |
| 2026-04-26 11:50 | 54.86492 | 10.64840 | 35550 ft | 458 kts | 239° |
| 2026-04-26 11:51 | 54.84662 | 10.60308 | 35828 ft | 458 kts | 239° |
| 2026-04-26 11:51 | 54.82869 | 10.55830 | 36087 ft | 458 kts | 239° |
| 2026-04-26 11:51 | 54.81058 | 10.51278 | 36357 ft | 458 kts | 239° |
| 2026-04-26 11:51 | 54.79250 | 10.46720 | 36603 ft | 457 kts | 239° |
| 2026-04-26 11:52 | 54.77443 | 10.42163 | 36868 ft | 457 kts | 239° |
| 2026-04-26 11:52 | 54.76251 | 10.39158 | 37039 ft | 457 kts | 239° |
| 2026-04-26 11:52 | 54.73860 | 10.33142 | 37359 ft | 457 kts | 239° |
| 2026-04-26 11:52 | 54.72028 | 10.28643 | 37599 ft | 459 kts | 236° |
| 2026-04-26 11:53 | 54.69995 | 10.24345 | 37832 ft | 460 kts | 233° |
| 2026-04-26 11:53 | 54.67910 | 10.20139 | 38073 ft | 460 kts | 233° |
| 2026-04-26 11:53 | 54.65796 | 10.15962 | 38290 ft | 461 kts | 232° |
| 2026-04-26 11:54 | 54.61564 | 10.07713 | 38734 ft | 460 kts | 232° |
| 2026-04-26 11:54 | 54.59430 | 10.03568 | 38945 ft | 460 kts | 232° |
| 2026-04-26 11:54 | 54.57303 | 9.99437 | 39113 ft | 460 kts | 232° |
| 2026-04-26 11:54 | 54.55175 | 9.95306 | 39278 ft | 460 kts | 232° |
| 2026-04-26 11:55 | 54.53079 | 9.91237 | 39390 ft | 461 kts | 232° |
| 2026-04-26 11:55 | 54.50952 | 9.87112 | 39523 ft | 461 kts | 232° |
| 2026-04-26 11:55 | 54.48781 | 9.83027 | 39623 ft | 463 kts | 229° |
| 2026-04-26 11:55 | 54.46479 | 9.79143 | 39748 ft | 465 kts | 227° |
| 2026-04-26 11:56 | 54.44103 | 9.75364 | 39871 ft | 466 kts | 226° |
| 2026-04-26 11:56 | 54.41707 | 9.71617 | 39984 ft | 466 kts | 226° |
| 2026-04-26 11:56 | 54.39310 | 9.67857 | 40097 ft | 467 kts | 226° |
| 2026-04-26 11:56 | 54.36922 | 9.64075 | 40222 ft | 467 kts | 226° |
| 2026-04-26 11:57 | 54.34539 | 9.60263 | 40284 ft | 467 kts | 226° |
| 2026-04-26 11:57 | 54.29785 | 9.52600 | 40318 ft | 468 kts | 227° |
| 2026-04-26 11:58 | 54.25072 | 9.44996 | 40319 ft | 468 kts | 226° |
| 2026-04-26 11:58 | 54.20318 | 9.37353 | 40305 ft | 468 kts | 226° |
| 2026-04-26 11:59 | 54.15555 | 9.29726 | 40313 ft | 468 kts | 226° |
| 2026-04-26 11:59 | 54.10816 | 9.22166 | 40314 ft | 468 kts | 226° |
| 2026-04-26 12:00 | 54.06057 | 9.14599 | 40318 ft | 468 kts | 226° |
| 2026-04-26 12:00 | 54.01281 | 9.07028 | 40328 ft | 468 kts | 226° |
| 2026-04-26 12:01 | 53.96498 | 8.99471 | 40332 ft | 468 kts | 226° |
| 2026-04-26 12:01 | 53.91741 | 8.91981 | 40335 ft | 468 kts | 226° |
| 2026-04-26 12:02 | 53.86955 | 8.84469 | 40342 ft | 468 kts | 226° |
| 2026-04-26 12:02 | 53.82164 | 8.76975 | 40347 ft | 468 kts | 225° |
| 2026-04-26 12:03 | 53.77395 | 8.69539 | 40347 ft | 468 kts | 225° |
| 2026-04-26 12:03 | 53.72594 | 8.62077 | 40346 ft | 468 kts | 225° |
| 2026-04-26 12:04 | 53.67785 | 8.54627 | 40339 ft | 468 kts | 225° |
| 2026-04-26 12:04 | 53.63783 | 8.48445 | 40343 ft | 469 kts | 225° |
| 2026-04-26 12:05 | 53.58970 | 8.41033 | 40333 ft | 469 kts | 225° |
| 2026-04-26 12:05 | 53.53363 | 8.32428 | 40330 ft | 469 kts | 225° |
| 2026-04-26 12:06 | 53.49321 | 8.26245 | 40331 ft | 469 kts | 225° |
| 2026-04-26 12:06 | 53.44518 | 8.18919 | 40324 ft | 470 kts | 225° |
| 2026-04-26 12:07 | 53.39670 | 8.11550 | 40331 ft | 470 kts | 225° |
| 2026-04-26 12:07 | 53.34806 | 8.04177 | 40330 ft | 470 kts | 225° |
| 2026-04-26 12:08 | 53.29978 | 7.96884 | 40330 ft | 470 kts | 225° |
| 2026-04-26 12:08 | 53.25112 | 7.89558 | 40327 ft | 470 kts | 224° |
| 2026-04-26 12:09 | 53.20237 | 7.82240 | 40327 ft | 470 kts | 224° |
| 2026-04-26 12:09 | 53.15392 | 7.74992 | 40327 ft | 470 kts | 224° |
| 2026-04-26 12:10 | 53.10509 | 7.67709 | 40330 ft | 470 kts | 224° |
| 2026-04-26 12:10 | 53.05654 | 7.60490 | 40330 ft | 471 kts | 224° |
| 2026-04-26 12:11 | 53.00763 | 7.53241 | 40317 ft | 471 kts | 224° |
| 2026-04-26 12:11 | 52.95857 | 7.45993 | 40331 ft | 471 kts | 224° |
| 2026-04-26 12:12 | 52.90979 | 7.38809 | 40332 ft | 471 kts | 224° |
| 2026-04-26 12:12 | 52.86066 | 7.31597 | 40331 ft | 471 kts | 224° |
| 2026-04-26 12:13 | 52.81143 | 7.24392 | 40328 ft | 471 kts | 224° |
| 2026-04-26 12:13 | 52.76215 | 7.17202 | 40325 ft | 472 kts | 224° |
| 2026-04-26 12:14 | 52.71316 | 7.10077 | 40344 ft | 472 kts | 224° |
| 2026-04-26 12:14 | 52.66378 | 7.02918 | 40341 ft | 472 kts | 224° |
| 2026-04-26 12:15 | 52.61544 | 6.95617 | 40338 ft | 471 kts | 226° |
| 2026-04-26 12:15 | 52.56818 | 6.88222 | 40337 ft | 471 kts | 226° |
| 2026-04-26 12:16 | 52.52041 | 6.80798 | 40327 ft | 471 kts | 226° |
| 2026-04-26 12:16 | 52.47246 | 6.73432 | 40330 ft | 472 kts | 225° |
| 2026-04-26 12:17 | 52.42461 | 6.66127 | 40328 ft | 472 kts | 225° |
| 2026-04-26 12:17 | 52.37650 | 6.58806 | 40333 ft | 472 kts | 225° |
| 2026-04-26 12:18 | 52.32838 | 6.51503 | 40325 ft | 472 kts | 225° |
| 2026-04-26 12:18 | 52.28043 | 6.44247 | 40329 ft | 472 kts | 225° |
| 2026-04-26 12:19 | 52.23204 | 6.36948 | 40327 ft | 472 kts | 225° |
| 2026-04-26 12:19 | 52.18397 | 6.29719 | 40325 ft | 472 kts | 225° |
| 2026-04-26 12:20 | 52.13564 | 6.22473 | 40324 ft | 472 kts | 225° |
| 2026-04-26 12:20 | 52.08738 | 6.15261 | 40321 ft | 472 kts | 225° |
| 2026-04-26 12:21 | 52.03881 | 6.08024 | 40321 ft | 473 kts | 225° |
| 2026-04-26 12:21 | 51.99021 | 6.00805 | 40327 ft | 473 kts | 225° |
| 2026-04-26 12:22 | 51.94156 | 5.93601 | 40323 ft | 473 kts | 225° |
| 2026-04-26 12:22 | 51.89304 | 5.86439 | 40314 ft | 473 kts | 225° |
| 2026-04-26 12:23 | 51.84428 | 5.79262 | 40320 ft | 474 kts | 225° |
| 2026-04-26 12:23 | 51.79571 | 5.72136 | 40320 ft | 474 kts | 225° |
| 2026-04-26 12:24 | 51.74671 | 5.64968 | 40317 ft | 474 kts | 225° |
| 2026-04-26 12:24 | 51.69801 | 5.57866 | 40320 ft | 474 kts | 225° |
| 2026-04-26 12:25 | 51.62444 | 5.47178 | 40317 ft | 475 kts | 225° |
| 2026-04-26 12:25 | 51.57533 | 5.40070 | 40318 ft | 475 kts | 225° |
| 2026-04-26 12:26 | 51.52619 | 5.32981 | 40320 ft | 475 kts | 225° |
| 2026-04-26 12:26 | 51.47714 | 5.25924 | 40318 ft | 475 kts | 225° |
| 2026-04-26 12:27 | 51.42804 | 5.18882 | 40316 ft | 475 kts | 225° |
| 2026-04-26 12:27 | 51.37878 | 5.11838 | 40313 ft | 475 kts | 225° |
| 2026-04-26 12:28 | 51.32932 | 5.04788 | 40313 ft | 475 kts | 225° |
| 2026-04-26 12:28 | 51.27990 | 4.97763 | 40300 ft | 475 kts | 224° |
| 2026-04-26 12:29 | 51.23030 | 4.90733 | 40298 ft | 475 kts | 224° |
| 2026-04-26 12:30 | 51.15614 | 4.80263 | 40311 ft | 476 kts | 224° |
| 2026-04-26 12:30 | 51.10651 | 4.73283 | 40315 ft | 476 kts | 224° |
| 2026-04-26 12:31 | 51.03226 | 4.62879 | 40314 ft | 476 kts | 224° |
| 2026-04-26 12:31 | 50.98248 | 4.55929 | 40320 ft | 476 kts | 224° |
| 2026-04-26 12:32 | 50.93259 | 4.48984 | 40320 ft | 476 kts | 224° |
| 2026-04-26 12:33 | 50.85775 | 4.38605 | 40317 ft | 476 kts | 224° |
| 2026-04-26 12:33 | 50.80815 | 4.31752 | 40314 ft | 476 kts | 224° |
| 2026-04-26 12:34 | 50.75813 | 4.24861 | 40311 ft | 476 kts | 224° |
| 2026-04-26 12:34 | 50.70812 | 4.17993 | 40305 ft | 476 kts | 224° |
| 2026-04-26 12:35 | 50.65788 | 4.11113 | 40297 ft | 476 kts | 224° |
| 2026-04-26 12:35 | 50.60554 | 4.04753 | 40295 ft | 481 kts | 214° |
| 2026-04-26 12:36 | 50.54753 | 3.99493 | 39983 ft | 480 kts | 212° |
| 2026-04-26 12:36 | 50.51852 | 3.97004 | 39759 ft | 479 kts | 212° |
| 2026-04-26 12:36 | 50.48915 | 3.94515 | 39538 ft | 479 kts | 211° |
| 2026-04-26 12:36 | 50.45970 | 3.92024 | 39340 ft | 479 kts | 211° |
| 2026-04-26 12:37 | 50.43028 | 3.89532 | 39293 ft | 480 kts | 212° |
| 2026-04-26 12:37 | 50.37145 | 3.84534 | 39292 ft | 480 kts | 212° |
| 2026-04-26 12:38 | 50.31311 | 3.79572 | 39284 ft | 480 kts | 212° |
| 2026-04-26 12:38 | 50.25433 | 3.74582 | 39285 ft | 480 kts | 212° |
| 2026-04-26 12:39 | 50.19564 | 3.69615 | 39281 ft | 480 kts | 212° |
| 2026-04-26 12:39 | 50.13678 | 3.64648 | 39268 ft | 480 kts | 212° |
| 2026-04-26 12:40 | 50.07835 | 3.59732 | 39278 ft | 479 kts | 212° |
| 2026-04-26 12:40 | 50.01959 | 3.54802 | 39276 ft | 479 kts | 211° |
| 2026-04-26 12:41 | 49.96081 | 3.49885 | 39270 ft | 479 kts | 211° |
| 2026-04-26 12:41 | 49.90189 | 3.44969 | 39262 ft | 480 kts | 211° |
| 2026-04-26 12:42 | 49.84332 | 3.40097 | 39268 ft | 480 kts | 211° |
| 2026-04-26 12:42 | 49.78438 | 3.35207 | 39265 ft | 480 kts | 211° |
| 2026-04-26 12:43 | 49.72532 | 3.30320 | 39259 ft | 480 kts | 211° |
| 2026-04-26 12:43 | 49.66674 | 3.25487 | 39259 ft | 480 kts | 211° |
| 2026-04-26 12:44 | 49.60768 | 3.20627 | 39260 ft | 480 kts | 211° |
| 2026-04-26 12:44 | 49.54893 | 3.15806 | 39255 ft | 480 kts | 211° |
| 2026-04-26 12:45 | 49.49001 | 3.10904 | 39252 ft | 479 kts | 214° |
| 2026-04-26 12:45 | 49.43381 | 3.05384 | 39254 ft | 478 kts | 216° |
| 2026-04-26 12:46 | 49.37864 | 2.99785 | 39254 ft | 478 kts | 217° |
| 2026-04-26 12:46 | 49.32305 | 2.94128 | 39254 ft | 478 kts | 217° |
| 2026-04-26 12:47 | 49.26758 | 2.88512 | 39241 ft | 478 kts | 217° |
| 2026-04-26 12:47 | 49.21212 | 2.82924 | 39252 ft | 478 kts | 216° |
| 2026-04-26 12:48 | 49.15637 | 2.77325 | 39257 ft | 479 kts | 216° |
| 2026-04-26 12:48 | 49.10098 | 2.71777 | 39262 ft | 479 kts | 216° |
| 2026-04-26 12:49 | 49.04519 | 2.66204 | 39255 ft | 479 kts | 216° |
| 2026-04-26 12:49 | 48.98934 | 2.60639 | 39267 ft | 479 kts | 216° |
| 2026-04-26 12:50 | 48.93362 | 2.55096 | 39266 ft | 478 kts | 216° |
| 2026-04-26 12:50 | 48.88734 | 2.50509 | 39264 ft | 478 kts | 216° |
| 2026-04-26 12:51 | 48.82237 | 2.44091 | 39243 ft | 478 kts | 216° |
| 2026-04-26 12:51 | 48.77597 | 2.39519 | 39237 ft | 478 kts | 216° |
| 2026-04-26 12:52 | 48.72005 | 2.34020 | 39234 ft | 478 kts | 216° |
| 2026-04-26 12:52 | 48.66422 | 2.28544 | 39239 ft | 478 kts | 216° |
| 2026-04-26 12:53 | 48.60827 | 2.23071 | 39236 ft | 478 kts | 216° |
| 2026-04-26 12:53 | 48.54829 | 2.18744 | 39244 ft | 484 kts | 199° |
| 2026-04-26 12:54 | 48.48271 | 2.16273 | 39240 ft | 487 kts | 195° |
| 2026-04-26 12:54 | 48.41666 | 2.14187 | 39236 ft | 486 kts | 194° |
| 2026-04-26 12:55 | 48.35031 | 2.12128 | 39235 ft | 486 kts | 194° |
| 2026-04-26 12:55 | 48.28311 | 2.10582 | 39235 ft | 490 kts | 184° |
| 2026-04-26 12:56 | 48.21481 | 2.11341 | 39236 ft | 493 kts | 175° |
| 2026-04-26 12:56 | 48.14696 | 2.12609 | 39232 ft | 493 kts | 179° |
| 2026-04-26 12:57 | 48.07878 | 2.12133 | 39235 ft | 490 kts | 188° |
| 2026-04-26 12:57 | 48.01152 | 2.10931 | 39237 ft | 489 kts | 190° |
| 2026-04-26 12:58 | 47.91011 | 2.08913 | 39237 ft | 490 kts | 189° |
| 2026-04-26 12:58 | 47.84244 | 2.07601 | 39237 ft | 490 kts | 189° |
| 2026-04-26 12:59 | 47.77475 | 2.06312 | 39206 ft | 490 kts | 189° |
| 2026-04-26 12:59 | 47.70730 | 2.05036 | 39216 ft | 490 kts | 189° |
| 2026-04-26 13:00 | 47.63991 | 2.03534 | 39217 ft | 488 kts | 196° |
| 2026-04-26 13:00 | 47.57566 | 2.00359 | 39204 ft | 486 kts | 203° |
| 2026-04-26 13:01 | 47.51289 | 1.96744 | 39206 ft | 486 kts | 204° |
| 2026-04-26 13:01 | 47.44999 | 1.93048 | 39205 ft | 486 kts | 204° |
| 2026-04-26 13:02 | 47.38695 | 1.89380 | 39205 ft | 486 kts | 204° |
| 2026-04-26 13:02 | 47.32424 | 1.85766 | 39210 ft | 486 kts | 204° |
| 2026-04-26 13:03 | 47.26102 | 1.82140 | 39211 ft | 487 kts | 203° |
| 2026-04-26 13:03 | 47.19786 | 1.78527 | 39209 ft | 487 kts | 204° |
| 2026-04-26 13:04 | 47.13480 | 1.74952 | 39205 ft | 487 kts | 203° |
| 2026-04-26 13:04 | 47.07136 | 1.71394 | 39206 ft | 487 kts | 203° |
| 2026-04-26 13:05 | 47.00821 | 1.67858 | 39212 ft | 488 kts | 203° |
| 2026-04-26 13:05 | 46.94460 | 1.64299 | 39205 ft | 488 kts | 203° |
| 2026-04-26 13:06 | 46.88115 | 1.60754 | 39211 ft | 488 kts | 203° |
| 2026-04-26 13:06 | 46.81800 | 1.57235 | 39211 ft | 487 kts | 203° |
| 2026-04-26 13:07 | 46.75453 | 1.53708 | 39208 ft | 487 kts | 203° |
| 2026-04-26 13:07 | 46.69108 | 1.50190 | 39208 ft | 487 kts | 203° |
| 2026-04-26 13:08 | 46.62791 | 1.46697 | 39203 ft | 487 kts | 203° |
| 2026-04-26 13:08 | 46.56440 | 1.43195 | 39200 ft | 487 kts | 202° |
| 2026-04-26 13:09 | 46.50092 | 1.39703 | 39200 ft | 488 kts | 202° |
| 2026-04-26 13:09 | 46.43768 | 1.36231 | 39199 ft | 488 kts | 202° |
| 2026-04-26 13:10 | 46.37403 | 1.32748 | 39200 ft | 488 kts | 202° |
| 2026-04-26 13:10 | 46.31038 | 1.29271 | 39199 ft | 489 kts | 202° |
| 2026-04-26 13:11 | 46.24658 | 1.25797 | 39200 ft | 489 kts | 202° |
| 2026-04-26 13:11 | 46.18315 | 1.22351 | 39195 ft | 489 kts | 202° |
| 2026-04-26 13:12 | 46.11940 | 1.18894 | 39181 ft | 489 kts | 202° |
| 2026-04-26 13:12 | 46.05604 | 1.15469 | 39189 ft | 488 kts | 202° |
| 2026-04-26 13:13 | 45.99238 | 1.12036 | 39186 ft | 488 kts | 202° |
| 2026-04-26 13:13 | 45.92871 | 1.08610 | 39184 ft | 488 kts | 202° |
| 2026-04-26 13:14 | 45.86532 | 1.05208 | 39184 ft | 488 kts | 202° |
| 2026-04-26 13:14 | 45.80477 | 1.00916 | 39184 ft | 483 kts | 217° |
| 2026-04-26 13:15 | 45.75188 | 0.95031 | 39183 ft | 482 kts | 221° |
| 2026-04-26 13:15 | 45.70903 | 0.89883 | 39189 ft | 483 kts | 222° |
| 2026-04-26 13:16 | 45.64899 | 0.82616 | 39183 ft | 483 kts | 222° |
| 2026-04-26 13:16 | 45.59780 | 0.76489 | 39193 ft | 483 kts | 221° |
| 2026-04-26 13:17 | 45.52040 | 0.67301 | 39178 ft | 482 kts | 221° |
| 2026-04-26 13:18 | 45.44275 | 0.58123 | 39163 ft | 482 kts | 221° |
| 2026-04-26 13:19 | 45.36543 | 0.49014 | 39170 ft | 483 kts | 221° |
| 2026-04-26 13:19 | 45.31361 | 0.42927 | 39178 ft | 483 kts | 221° |
| 2026-04-26 13:20 | 45.26204 | 0.36885 | 39173 ft | 482 kts | 221° |
| 2026-04-26 13:20 | 45.21019 | 0.30826 | 39173 ft | 481 kts | 221° |
| 2026-04-26 13:21 | 45.15840 | 0.24786 | 39184 ft | 481 kts | 221° |
| 2026-04-26 13:21 | 45.10681 | 0.18785 | 39182 ft | 482 kts | 221° |
| 2026-04-26 13:22 | 45.05481 | 0.12751 | 39186 ft | 482 kts | 221° |
| 2026-04-26 13:22 | 45.00322 | 0.06773 | 39185 ft | 482 kts | 221° |
| 2026-04-26 13:23 | 44.95127 | 0.00776 | 39182 ft | 482 kts | 220° |
| 2026-04-26 13:23 | 44.89915 | -0.05223 | 39185 ft | 481 kts | 220° |
| 2026-04-26 13:24 | 44.84763 | -0.11141 | 39185 ft | 480 kts | 220° |
| 2026-04-26 13:24 | 44.79577 | -0.17086 | 39183 ft | 480 kts | 220° |
| 2026-04-26 13:25 | 44.74372 | -0.23039 | 39182 ft | 480 kts | 220° |
| 2026-04-26 13:25 | 44.69217 | -0.28920 | 39183 ft | 480 kts | 220° |
| 2026-04-26 13:26 | 44.64018 | -0.34834 | 39183 ft | 480 kts | 220° |
| 2026-04-26 13:26 | 44.58563 | -0.40302 | 39182 ft | 481 kts | 215° |
| 2026-04-26 13:27 | 44.52946 | -0.45496 | 39182 ft | 482 kts | 214° |
| 2026-04-26 13:27 | 44.47405 | -0.50682 | 39189 ft | 481 kts | 215° |
| 2026-04-26 13:28 | 44.41849 | -0.55971 | 39189 ft | 481 kts | 216° |
| 2026-04-26 13:28 | 44.36348 | -0.61231 | 39189 ft | 481 kts | 216° |
| 2026-04-26 13:29 | 44.30812 | -0.66514 | 39189 ft | 481 kts | 215° |
| 2026-04-26 13:29 | 44.25264 | -0.71782 | 39189 ft | 482 kts | 215° |
| 2026-04-26 13:30 | 44.19656 | -0.76945 | 39184 ft | 482 kts | 214° |
| 2026-04-26 13:30 | 44.14073 | -0.82034 | 39189 ft | 481 kts | 214° |
| 2026-04-26 13:31 | 44.08478 | -0.87143 | 39190 ft | 481 kts | 214° |
| 2026-04-26 13:31 | 44.02919 | -0.92224 | 39189 ft | 481 kts | 214° |
| 2026-04-26 13:32 | 43.97320 | -0.97334 | 39189 ft | 481 kts | 214° |
| 2026-04-26 13:32 | 43.91708 | -1.02444 | 39187 ft | 482 kts | 214° |
| 2026-04-26 13:33 | 43.86123 | -1.07517 | 39184 ft | 482 kts | 214° |
| 2026-04-26 13:33 | 43.80498 | -1.12613 | 39184 ft | 482 kts | 214° |
| 2026-04-26 13:34 | 43.74911 | -1.17664 | 39183 ft | 482 kts | 214° |
| 2026-04-26 13:34 | 43.69293 | -1.22732 | 39184 ft | 481 kts | 214° |
| 2026-04-26 13:35 | 43.63670 | -1.27793 | 39185 ft | 481 kts | 214° |
| 2026-04-26 13:35 | 43.58047 | -1.32842 | 39202 ft | 481 kts | 214° |
| 2026-04-26 13:36 | 43.52466 | -1.37843 | 39207 ft | 482 kts | 214° |
| 2026-04-26 13:36 | 43.46840 | -1.42873 | 39211 ft | 482 kts | 214° |
| 2026-04-26 13:37 | 43.41215 | -1.47889 | 39208 ft | 482 kts | 214° |
| 2026-04-26 13:37 | 43.36528 | -1.52061 | 39210 ft | 483 kts | 213° |
| 2026-04-26 13:38 | 43.29957 | -1.57880 | 39183 ft | 483 kts | 212° |
| 2026-04-26 13:38 | 43.24906 | -1.61129 | 39181 ft | 484 kts | 198° |
| 2026-04-26 13:39 | 43.18286 | -1.62924 | 39179 ft | 484 kts | 188° |
| 2026-04-26 13:39 | 43.11600 | -1.64036 | 39174 ft | 487 kts | 187° |
| 2026-04-26 13:40 | 43.04864 | -1.65068 | 39162 ft | 486 kts | 187° |
| 2026-04-26 13:40 | 42.98155 | -1.66136 | 39148 ft | 485 kts | 187° |
| 2026-04-26 13:41 | 42.91397 | -1.67241 | 39151 ft | 492 kts | 187° |
| 2026-04-26 13:41 | 42.84538 | -1.68371 | 39129 ft | 495 kts | 187° |
| 2026-04-26 13:42 | 42.77718 | -1.69492 | 39129 ft | 495 kts | 187° |
| 2026-04-26 13:42 | 42.71070 | -1.71891 | 39132 ft | 493 kts | 205° |
| 2026-04-26 13:43 | 42.64873 | -1.75795 | 39128 ft | 493 kts | 207° |
| 2026-04-26 13:43 | 42.58728 | -1.79970 | 39121 ft | 493 kts | 207° |
| 2026-04-26 13:44 | 42.52589 | -1.84148 | 39120 ft | 493 kts | 207° |
| 2026-04-26 13:44 | 42.46472 | -1.88263 | 39111 ft | 493 kts | 207° |
| 2026-04-26 13:45 | 42.40303 | -1.92387 | 39116 ft | 493 kts | 207° |
| 2026-04-26 13:45 | 42.34144 | -1.96487 | 39115 ft | 492 kts | 207° |
| 2026-04-26 13:46 | 42.28034 | -2.00548 | 39119 ft | 492 kts | 207° |
| 2026-04-26 13:46 | 42.21877 | -2.04638 | 39120 ft | 492 kts | 207° |
| 2026-04-26 13:47 | 42.15717 | -2.08708 | 39121 ft | 492 kts | 207° |
| 2026-04-26 13:47 | 42.09587 | -2.12750 | 39121 ft | 493 kts | 207° |
| 2026-04-26 13:48 | 42.03405 | -2.16819 | 39135 ft | 493 kts | 207° |
| 2026-04-26 13:48 | 41.97222 | -2.20881 | 39137 ft | 493 kts | 207° |
| 2026-04-26 13:49 | 41.91079 | -2.24908 | 39139 ft | 494 kts | 207° |
| 2026-04-26 13:49 | 41.84892 | -2.28956 | 39137 ft | 494 kts | 207° |
| 2026-04-26 13:50 | 41.78711 | -2.32990 | 39140 ft | 494 kts | 207° |
| 2026-04-26 13:50 | 41.72512 | -2.37028 | 39129 ft | 494 kts | 207° |
| 2026-04-26 13:51 | 41.66361 | -2.41025 | 39124 ft | 494 kts | 207° |
| 2026-04-26 13:51 | 41.60162 | -2.45046 | 39121 ft | 494 kts | 206° |
| 2026-04-26 13:52 | 41.54012 | -2.49026 | 39121 ft | 494 kts | 206° |
| 2026-04-26 13:52 | 41.47815 | -2.53030 | 39118 ft | 493 kts | 207° |
| 2026-04-26 13:53 | 41.41659 | -2.56997 | 39119 ft | 493 kts | 207° |
| 2026-04-26 13:53 | 41.35466 | -2.60978 | 39121 ft | 493 kts | 207° |
| 2026-04-26 13:54 | 41.29544 | -2.65584 | 39118 ft | 491 kts | 214° |
| 2026-04-26 13:54 | 41.23914 | -2.70681 | 39121 ft | 491 kts | 216° |
| 2026-04-26 13:55 | 41.16443 | -2.77595 | 39118 ft | 491 kts | 216° |
| 2026-04-26 13:56 | 41.07089 | -2.86192 | 39107 ft | 491 kts | 216° |
| 2026-04-26 13:56 | 41.01467 | -2.91327 | 39109 ft | 490 kts | 216° |
| 2026-04-26 13:57 | 40.95837 | -2.96459 | 39105 ft | 490 kts | 216° |
| 2026-04-26 13:57 | 40.90243 | -3.01546 | 39102 ft | 490 kts | 216° |
| 2026-04-26 13:58 | 40.84615 | -3.06655 | 39099 ft | 490 kts | 216° |
| 2026-04-26 13:58 | 40.78985 | -3.11755 | 39104 ft | 490 kts | 216° |
| 2026-04-26 13:59 | 40.73349 | -3.16851 | 39103 ft | 490 kts | 215° |
| 2026-04-26 13:59 | 40.67757 | -3.21895 | 39111 ft | 490 kts | 215° |
| 2026-04-26 14:00 | 40.56477 | -3.32039 | 39125 ft | 490 kts | 215° |
| 2026-04-26 14:01 | 40.50843 | -3.37090 | 39131 ft | 490 kts | 215° |
| 2026-04-26 14:01 | 40.45226 | -3.42115 | 39130 ft | 490 kts | 215° |
| 2026-04-26 14:02 | 40.39608 | -3.47131 | 39128 ft | 492 kts | 216° |
| 2026-04-26 14:02 | 40.33904 | -3.52213 | 39125 ft | 495 kts | 215° |
| 2026-04-26 14:03 | 40.28199 | -3.57285 | 39125 ft | 495 kts | 215° |
| 2026-04-26 14:03 | 40.22488 | -3.62351 | 39129 ft | 495 kts | 215° |
| 2026-04-26 14:04 | 40.16810 | -3.67380 | 39125 ft | 495 kts | 215° |
| 2026-04-26 14:04 | 40.11088 | -3.72435 | 39116 ft | 495 kts | 215° |
| 2026-04-26 14:05 | 40.05414 | -3.77446 | 39092 ft | 495 kts | 215° |
| 2026-04-26 14:05 | 39.99680 | -3.82488 | 39088 ft | 495 kts | 215° |
| 2026-04-26 14:06 | 39.93958 | -3.87508 | 39086 ft | 495 kts | 216° |
| 2026-04-26 14:06 | 39.88276 | -3.92487 | 39087 ft | 495 kts | 215° |
| 2026-04-26 14:07 | 39.82552 | -3.97493 | 39089 ft | 495 kts | 216° |
| 2026-04-26 14:07 | 39.76832 | -4.02485 | 39091 ft | 495 kts | 215° |
| 2026-04-26 14:08 | 39.71104 | -4.07479 | 39091 ft | 495 kts | 216° |
| 2026-04-26 14:08 | 39.65371 | -4.12464 | 39085 ft | 495 kts | 215° |
| 2026-04-26 14:09 | 39.59678 | -4.17399 | 39085 ft | 495 kts | 215° |
| 2026-04-26 14:09 | 39.53935 | -4.22368 | 39086 ft | 495 kts | 215° |
| 2026-04-26 14:10 | 39.48195 | -4.27326 | 39077 ft | 495 kts | 215° |
| 2026-04-26 14:10 | 39.42490 | -4.32245 | 39080 ft | 495 kts | 215° |
| 2026-04-26 14:11 | 39.33868 | -4.39661 | 39078 ft | 495 kts | 215° |
| 2026-04-26 14:11 | 39.28129 | -4.44584 | 39072 ft | 495 kts | 215° |
| 2026-04-26 14:12 | 39.22413 | -4.49479 | 39071 ft | 495 kts | 215° |
| 2026-04-26 14:12 | 39.16665 | -4.54397 | 39070 ft | 495 kts | 215° |
| 2026-04-26 14:13 | 39.08061 | -4.61728 | 39068 ft | 495 kts | 215° |
| 2026-04-26 14:14 | 39.02308 | -4.66618 | 39059 ft | 495 kts | 215° |
| 2026-04-26 14:14 | 38.96589 | -4.71477 | 39062 ft | 495 kts | 215° |
| 2026-04-26 14:15 | 38.90838 | -4.76344 | 39049 ft | 495 kts | 215° |
| 2026-04-26 14:15 | 38.85063 | -4.81221 | 39050 ft | 495 kts | 215° |
| 2026-04-26 14:16 | 38.79332 | -4.86052 | 39047 ft | 495 kts | 215° |
| 2026-04-26 14:16 | 38.73563 | -4.90909 | 39037 ft | 495 kts | 215° |
| 2026-04-26 14:17 | 38.67785 | -4.95762 | 39036 ft | 495 kts | 215° |
| 2026-04-26 14:17 | 38.62024 | -5.00592 | 39050 ft | 494 kts | 215° |
| 2026-04-26 14:18 | 38.56299 | -5.05383 | 39049 ft | 494 kts | 215° |
| 2026-04-26 14:18 | 38.50464 | -5.10061 | 39043 ft | 496 kts | 209° |
| 2026-04-26 14:19 | 38.44329 | -5.14045 | 39043 ft | 496 kts | 208° |
| 2026-04-26 14:19 | 38.38107 | -5.17909 | 39043 ft | 497 kts | 208° |
| 2026-04-26 14:20 | 38.31914 | -5.21724 | 39042 ft | 497 kts | 208° |
| 2026-04-26 14:20 | 38.25684 | -5.25569 | 39042 ft | 496 kts | 208° |
| 2026-04-26 14:21 | 38.19486 | -5.29397 | 39041 ft | 497 kts | 208° |
| 2026-04-26 14:21 | 38.13256 | -5.33241 | 39032 ft | 497 kts | 208° |
| 2026-04-26 14:22 | 38.07039 | -5.37069 | 39037 ft | 495 kts | 208° |
| 2026-04-26 14:22 | 38.00877 | -5.40854 | 39038 ft | 494 kts | 208° |
| 2026-04-26 14:23 | 37.94668 | -5.44662 | 39037 ft | 495 kts | 208° |
| 2026-04-26 14:23 | 37.88495 | -5.48441 | 39041 ft | 495 kts | 208° |
| 2026-04-26 14:24 | 37.82292 | -5.52231 | 39032 ft | 495 kts | 208° |
| 2026-04-26 14:24 | 37.76082 | -5.56019 | 39038 ft | 495 kts | 208° |
| 2026-04-26 14:25 | 37.69871 | -5.59799 | 39036 ft | 495 kts | 208° |
| 2026-04-26 14:25 | 37.63658 | -5.63573 | 39030 ft | 495 kts | 208° |
| 2026-04-26 14:26 | 37.58489 | -5.66708 | 39026 ft | 495 kts | 208° |
| 2026-04-26 14:26 | 37.52267 | -5.70475 | 39023 ft | 496 kts | 208° |
| 2026-04-26 14:27 | 37.46048 | -5.74235 | 39021 ft | 495 kts | 207° |
| 2026-04-26 14:27 | 37.40336 | -5.78867 | 39021 ft | 490 kts | 220° |
| 2026-04-26 14:28 | 37.35061 | -5.84318 | 39020 ft | 489 kts | 222° |
| 2026-04-26 14:28 | 37.29878 | -5.89877 | 39020 ft | 489 kts | 223° |
| 2026-04-26 14:29 | 37.24737 | -5.95380 | 39018 ft | 489 kts | 222° |
| 2026-04-26 14:29 | 37.19542 | -6.00901 | 39017 ft | 489 kts | 222° |
| 2026-04-26 14:30 | 37.14333 | -6.06409 | 39015 ft | 489 kts | 222° |
| 2026-04-26 14:30 | 37.09156 | -6.11872 | 39012 ft | 488 kts | 222° |
| 2026-04-26 14:31 | 37.03972 | -6.17332 | 39009 ft | 486 kts | 222° |
| 2026-04-26 14:31 | 36.98791 | -6.22780 | 39014 ft | 486 kts | 222° |
| 2026-04-26 14:32 | 36.93610 | -6.28219 | 39016 ft | 486 kts | 222° |
| 2026-04-26 14:32 | 36.88422 | -6.33657 | 39017 ft | 486 kts | 222° |
| 2026-04-26 14:33 | 36.83267 | -6.39048 | 39014 ft | 486 kts | 222° |
| 2026-04-26 14:33 | 36.78076 | -6.44468 | 39015 ft | 485 kts | 222° |
| 2026-04-26 14:34 | 36.72886 | -6.49876 | 39018 ft | 485 kts | 221° |
| 2026-04-26 14:34 | 36.67736 | -6.55233 | 39018 ft | 484 kts | 221° |
| 2026-04-26 14:35 | 36.62549 | -6.60619 | 39018 ft | 484 kts | 221° |
| 2026-04-26 14:35 | 36.57402 | -6.65953 | 39021 ft | 484 kts | 221° |
| 2026-04-26 14:36 | 36.52216 | -6.71319 | 39017 ft | 484 kts | 221° |
| 2026-04-26 14:36 | 36.47061 | -6.76649 | 39016 ft | 483 kts | 221° |
| 2026-04-26 14:37 | 36.41864 | -6.82002 | 39016 ft | 483 kts | 221° |
| 2026-04-26 14:37 | 36.36716 | -6.87294 | 39027 ft | 483 kts | 221° |
| 2026-04-26 14:38 | 36.31527 | -6.92621 | 39016 ft | 483 kts | 221° |
| 2026-04-26 14:38 | 36.26346 | -6.97932 | 39013 ft | 482 kts | 221° |
| 2026-04-26 14:39 | 36.21203 | -7.03193 | 39010 ft | 482 kts | 221° |
| 2026-04-26 14:39 | 36.16034 | -7.08473 | 39010 ft | 481 kts | 221° |
| 2026-04-26 14:40 | 36.10861 | -7.13748 | 39007 ft | 481 kts | 221° |
| 2026-04-26 14:40 | 36.05712 | -7.18989 | 39026 ft | 481 kts | 221° |
| 2026-04-26 14:41 | 36.00543 | -7.24240 | 38997 ft | 479 kts | 220° |
| 2026-04-26 14:41 | 35.95388 | -7.29468 | 39018 ft | 477 kts | 221° |
| 2026-04-26 14:42 | 35.90290 | -7.34630 | 39014 ft | 477 kts | 220° |
| 2026-04-26 14:42 | 35.85156 | -7.39820 | 39013 ft | 477 kts | 220° |
| 2026-04-26 14:43 | 35.80006 | -7.45012 | 39013 ft | 476 kts | 220° |
| 2026-04-26 14:43 | 35.74884 | -7.50119 | 39013 ft | 476 kts | 220° |
| 2026-04-26 14:44 | 35.69729 | -7.55243 | 39005 ft | 476 kts | 220° |
| 2026-04-26 14:44 | 35.64568 | -7.60372 | 38994 ft | 477 kts | 220° |
| 2026-04-26 14:45 | 35.59404 | -7.65501 | 39003 ft | 477 kts | 220° |
| 2026-04-26 14:45 | 35.54246 | -7.70616 | 39002 ft | 477 kts | 220° |
| 2026-04-26 14:46 | 35.49111 | -7.75699 | 38995 ft | 476 kts | 220° |
| 2026-04-26 14:46 | 35.43942 | -7.80807 | 38993 ft | 474 kts | 219° |
| 2026-04-26 14:46 | 35.41399 | -7.83317 | 38975 ft | 463 kts | 219° |
| 2026-04-26 14:47 | 35.38912 | -7.85782 | 38989 ft | 457 kts | 220° |
| 2026-04-26 14:47 | 35.33967 | -7.90730 | 38995 ft | 465 kts | 220° |
| 2026-04-26 14:48 | 35.28954 | -7.95751 | 38985 ft | 463 kts | 220° |
| 2026-04-26 14:48 | 35.23958 | -8.00736 | 38988 ft | 463 kts | 220° |
| 2026-04-26 14:49 | 35.18961 | -8.05710 | 38994 ft | 463 kts | 220° |
| 2026-04-26 14:49 | 35.13966 | -8.10672 | 38985 ft | 463 kts | 220° |
| 2026-04-26 14:50 | 35.08993 | -8.15603 | 38986 ft | 463 kts | 220° |
| 2026-04-26 14:50 | 35.03988 | -8.20559 | 38981 ft | 462 kts | 219° |
| 2026-04-26 14:51 | 34.99011 | -8.25480 | 38982 ft | 462 kts | 220° |
| 2026-04-26 14:51 | 34.94004 | -8.30421 | 38977 ft | 463 kts | 219° |
| 2026-04-26 14:52 | 34.88985 | -8.35367 | 38981 ft | 463 kts | 219° |
| 2026-04-26 14:52 | 34.83995 | -8.40276 | 38973 ft | 463 kts | 219° |
| 2026-04-26 14:53 | 34.78965 | -8.45217 | 38969 ft | 463 kts | 219° |
| 2026-04-26 14:53 | 34.73943 | -8.50142 | 38971 ft | 463 kts | 219° |
| 2026-04-26 14:54 | 34.68949 | -8.55031 | 38968 ft | 463 kts | 219° |
| 2026-04-26 14:54 | 34.63920 | -8.59947 | 38969 ft | 464 kts | 219° |
| 2026-04-26 14:55 | 34.58912 | -8.64834 | 38968 ft | 464 kts | 219° |
| 2026-04-26 14:55 | 34.53879 | -8.69738 | 38968 ft | 464 kts | 219° |
| 2026-04-26 14:56 | 34.48835 | -8.74646 | 38968 ft | 464 kts | 219° |
| 2026-04-26 14:56 | 34.43783 | -8.79553 | 38972 ft | 465 kts | 219° |
| 2026-04-26 14:57 | 34.38747 | -8.84412 | 38965 ft | 466 kts | 219° |
| 2026-04-26 14:57 | 34.33655 | -8.89296 | 38966 ft | 466 kts | 219° |
| 2026-04-26 14:58 | 34.28565 | -8.94174 | 38963 ft | 466 kts | 219° |
| 2026-04-26 14:58 | 34.23501 | -8.99024 | 38963 ft | 466 kts | 219° |
| 2026-04-26 14:59 | 34.18407 | -9.03896 | 38959 ft | 466 kts | 219° |
| 2026-04-26 14:59 | 34.13350 | -9.08726 | 38955 ft | 466 kts | 219° |
| 2026-04-26 15:00 | 34.08247 | -9.13592 | 38961 ft | 467 kts | 218° |
| 2026-04-26 15:00 | 34.03133 | -9.18461 | 38962 ft | 467 kts | 218° |
| 2026-04-26 15:01 | 33.98062 | -9.23281 | 38961 ft | 467 kts | 218° |
| 2026-04-26 15:01 | 33.92950 | -9.28132 | 38958 ft | 467 kts | 218° |
| 2026-04-26 15:02 | 33.87839 | -9.32974 | 38958 ft | 468 kts | 218° |
| 2026-04-26 15:02 | 33.82712 | -9.37824 | 38952 ft | 468 kts | 218° |
| 2026-04-26 15:03 | 33.77593 | -9.42659 | 38954 ft | 468 kts | 218° |
| 2026-04-26 15:03 | 33.72493 | -9.47469 | 38954 ft | 468 kts | 218° |
| 2026-04-26 15:04 | 33.67367 | -9.52296 | 38953 ft | 467 kts | 218° |
| 2026-04-26 15:04 | 33.62242 | -9.57114 | 38952 ft | 466 kts | 218° |
| 2026-04-26 15:05 | 33.57155 | -9.61889 | 38947 ft | 466 kts | 218° |
| 2026-04-26 15:05 | 33.52038 | -9.66685 | 38949 ft | 465 kts | 218° |
| 2026-04-26 15:06 | 33.46928 | -9.71467 | 38951 ft | 465 kts | 218° |
| 2026-04-26 15:06 | 33.41850 | -9.76212 | 38953 ft | 465 kts | 218° |
| 2026-04-26 15:07 | 33.34177 | -9.83367 | 38953 ft | 465 kts | 218° |
| 2026-04-26 15:07 | 33.29094 | -9.88098 | 38947 ft | 464 kts | 218° |
| 2026-04-26 15:08 | 33.23994 | -9.92838 | 38949 ft | 463 kts | 218° |
| 2026-04-26 15:08 | 33.18899 | -9.97566 | 38949 ft | 463 kts | 218° |
| 2026-04-26 15:09 | 33.13810 | -10.02281 | 38952 ft | 463 kts | 218° |
| 2026-04-26 15:09 | 33.08742 | -10.06970 | 38952 ft | 463 kts | 218° |
| 2026-04-26 15:10 | 33.05330 | -10.10123 | 38949 ft | 463 kts | 218° |
| 2026-04-26 15:10 | 32.98543 | -10.16386 | 38952 ft | 463 kts | 218° |
| 2026-04-26 15:11 | 32.93460 | -10.21060 | 38951 ft | 463 kts | 218° |
| 2026-04-26 15:11 | 32.88352 | -10.25748 | 38946 ft | 463 kts | 218° |
| 2026-04-26 15:12 | 32.83251 | -10.30424 | 38949 ft | 463 kts | 218° |
| 2026-04-26 15:12 | 32.79005 | -10.34312 | 38950 ft | 463 kts | 218° |
| 2026-04-26 15:13 | 32.73068 | -10.39741 | 38950 ft | 463 kts | 218° |
| 2026-04-26 15:13 | 32.68825 | -10.43615 | 38948 ft | 462 kts | 218° |
| 2026-04-26 15:14 | 32.63716 | -10.48273 | 38949 ft | 462 kts | 218° |
| 2026-04-26 15:14 | 32.58611 | -10.52921 | 38947 ft | 462 kts | 218° |
| 2026-04-26 15:15 | 32.53528 | -10.57542 | 38955 ft | 462 kts | 218° |
| 2026-04-26 15:15 | 32.48420 | -10.62179 | 38950 ft | 462 kts | 218° |
| 2026-04-26 15:16 | 32.43312 | -10.66809 | 38937 ft | 462 kts | 218° |
| 2026-04-26 15:16 | 32.38209 | -10.71428 | 38946 ft | 461 kts | 218° |
| 2026-04-26 15:17 | 32.33969 | -10.75261 | 38950 ft | 461 kts | 218° |
| 2026-04-26 15:17 | 32.28043 | -10.80609 | 38950 ft | 461 kts | 218° |
| 2026-04-26 15:18 | 32.22937 | -10.85211 | 38944 ft | 461 kts | 218° |
| 2026-04-26 15:18 | 32.17830 | -10.89806 | 38951 ft | 461 kts | 218° |
| 2026-04-26 15:19 | 32.12752 | -10.94369 | 38951 ft | 461 kts | 218° |
| 2026-04-26 15:19 | 32.07643 | -10.98954 | 38947 ft | 461 kts | 218° |
| 2026-04-26 15:20 | 32.02532 | -11.03533 | 38949 ft | 461 kts | 218° |
| 2026-04-26 15:20 | 31.97420 | -11.08107 | 38949 ft | 461 kts | 218° |
| 2026-04-26 15:21 | 31.92328 | -11.12656 | 38949 ft | 461 kts | 218° |
| 2026-04-26 15:21 | 31.87201 | -11.17231 | 38949 ft | 461 kts | 218° |
| 2026-04-26 15:22 | 31.82087 | -11.21786 | 38949 ft | 461 kts | 218° |
| 2026-04-26 15:22 | 31.76971 | -11.26337 | 38946 ft | 460 kts | 218° |
| 2026-04-26 15:23 | 31.71903 | -11.30847 | 38947 ft | 460 kts | 218° |
| 2026-04-26 15:23 | 31.66799 | -11.35400 | 38947 ft | 460 kts | 218° |
| 2026-04-26 15:24 | 31.61695 | -11.39948 | 38944 ft | 460 kts | 218° |
| 2026-04-26 15:24 | 31.56617 | -11.44465 | 38944 ft | 460 kts | 218° |
| 2026-04-26 15:25 | 31.52370 | -11.48236 | 38950 ft | 459 kts | 218° |
| 2026-04-26 15:25 | 31.46420 | -11.53511 | 38946 ft | 458 kts | 218° |
| 2026-04-26 15:26 | 31.41362 | -11.57990 | 38944 ft | 458 kts | 218° |
| 2026-04-26 15:26 | 31.36272 | -11.62489 | 38944 ft | 458 kts | 218° |
| 2026-04-26 15:27 | 31.31167 | -11.66996 | 38942 ft | 458 kts | 218° |
| 2026-04-26 15:27 | 31.26075 | -11.71486 | 38923 ft | 458 kts | 218° |
| 2026-04-26 15:28 | 31.21018 | -11.75938 | 38949 ft | 457 kts | 218° |
| 2026-04-26 15:28 | 31.15938 | -11.80404 | 38944 ft | 457 kts | 218° |
| 2026-04-26 15:29 | 31.10844 | -11.84877 | 38944 ft | 457 kts | 218° |
| 2026-04-26 15:30 | 31.00708 | -11.93758 | 38949 ft | 457 kts | 218° |
| 2026-04-26 15:30 | 30.95623 | -11.98205 | 38937 ft | 456 kts | 218° |
| 2026-04-26 15:31 | 30.87986 | -12.04871 | 38954 ft | 456 kts | 218° |
| 2026-04-26 15:32 | 30.81214 | -12.10771 | 38952 ft | 456 kts | 218° |
| 2026-04-26 15:32 | 30.75302 | -12.15914 | 38952 ft | 456 kts | 218° |
| 2026-04-26 15:33 | 30.70220 | -12.20328 | 38955 ft | 455 kts | 218° |
| 2026-04-26 15:33 | 30.65137 | -12.24736 | 38949 ft | 455 kts | 218° |
| 2026-04-26 15:34 | 30.60094 | -12.29103 | 38952 ft | 453 kts | 218° |
| 2026-04-26 15:34 | 30.55039 | -12.33476 | 38958 ft | 453 kts | 218° |
| 2026-04-26 15:35 | 30.49971 | -12.37855 | 38958 ft | 453 kts | 218° |
| 2026-04-26 15:35 | 30.44932 | -12.42192 | 38959 ft | 453 kts | 218° |
| 2026-04-26 15:36 | 30.39859 | -12.46544 | 38955 ft | 453 kts | 218° |
| 2026-04-26 15:36 | 30.34819 | -12.50865 | 38947 ft | 453 kts | 218° |
| 2026-04-26 15:37 | 30.29759 | -12.55199 | 38958 ft | 452 kts | 218° |
| 2026-04-26 15:37 | 30.24702 | -12.59524 | 38958 ft | 451 kts | 218° |
| 2026-04-26 15:38 | 30.19654 | -12.63837 | 38963 ft | 451 kts | 218° |
| 2026-04-26 15:38 | 30.14593 | -12.68155 | 38963 ft | 451 kts | 218° |
| 2026-04-26 15:39 | 30.09532 | -12.72469 | 38960 ft | 451 kts | 218° |
| 2026-04-26 15:39 | 30.05355 | -12.76040 | 38960 ft | 451 kts | 218° |
| 2026-04-26 15:40 | 29.99447 | -12.81088 | 38966 ft | 452 kts | 218° |
| 2026-04-26 15:40 | 29.94417 | -12.85379 | 38966 ft | 452 kts | 218° |
| 2026-04-26 15:41 | 29.89356 | -12.89691 | 38966 ft | 452 kts | 218° |
| 2026-04-26 15:41 | 29.84274 | -12.94014 | 38969 ft | 452 kts | 218° |
| 2026-04-26 15:42 | 29.79241 | -12.98291 | 38968 ft | 452 kts | 218° |
| 2026-04-26 15:42 | 29.74174 | -13.02590 | 38961 ft | 452 kts | 218° |
| 2026-04-26 15:43 | 29.69117 | -13.06875 | 38974 ft | 450 kts | 218° |
| 2026-04-26 15:44 | 29.61551 | -13.13277 | 38974 ft | 449 kts | 218° |
| 2026-04-26 15:44 | 29.54016 | -13.19640 | 38974 ft | 449 kts | 218° |
| 2026-04-26 15:45 | 29.46459 | -13.26010 | 38977 ft | 449 kts | 218° |
| 2026-04-26 15:46 | 29.38941 | -13.32335 | 38977 ft | 447 kts | 218° |
| 2026-04-26 15:46 | 29.34774 | -13.35836 | 38982 ft | 446 kts | 218° |
| 2026-04-26 15:47 | 29.26397 | -13.42863 | 38982 ft | 446 kts | 218° |
| 2026-04-26 15:48 | 29.21429 | -13.47022 | 38981 ft | 438 kts | 218° |
| 2026-04-26 15:48 | 29.16548 | -13.51104 | 38991 ft | 431 kts | 218° |
| 2026-04-26 15:49 | 29.11959 | -13.55502 | 38981 ft | 429 kts | 223° |
| 2026-04-26 15:49 | 29.07516 | -13.59997 | 38989 ft | 428 kts | 223° |
| 2026-04-26 15:50 | 29.03006 | -13.64486 | 38999 ft | 428 kts | 222° |
| 2026-04-26 15:50 | 28.98524 | -13.68919 | 38998 ft | 428 kts | 222° |
| 2026-04-26 15:51 | 28.94006 | -13.73373 | 38989 ft | 428 kts | 222° |
| 2026-04-26 15:51 | 28.89493 | -13.77816 | 38990 ft | 428 kts | 222° |
| 2026-04-26 15:52 | 28.84998 | -13.82234 | 38989 ft | 428 kts | 222° |
| 2026-04-26 15:52 | 28.80487 | -13.86662 | 38983 ft | 428 kts | 222° |
| 2026-04-26 15:53 | 28.75965 | -13.91096 | 38991 ft | 428 kts | 222° |
| 2026-04-26 15:53 | 28.71475 | -13.95493 | 38989 ft | 428 kts | 222° |
| 2026-04-26 15:54 | 28.66984 | -13.99885 | 38782 ft | 415 kts | 222° |
| 2026-04-26 15:54 | 28.64812 | -14.02007 | 37792 ft | 410 kts | 222° |
| 2026-04-26 15:54 | 28.62635 | -14.04135 | 36286 ft | 417 kts | 222° |
| 2026-04-26 15:54 | 28.60409 | -14.06310 | 34763 ft | 425 kts | 221° |
| 2026-04-26 15:55 | 28.58129 | -14.08536 | 33123 ft | 434 kts | 221° |
| 2026-04-26 15:55 | 28.55789 | -14.10818 | 31720 ft | 449 kts | 221° |
| 2026-04-26 15:55 | 28.53432 | -14.13114 | 30933 ft | 451 kts | 221° |
| 2026-04-26 15:55 | 28.51053 | -14.15431 | 30284 ft | 449 kts | 221° |
| 2026-04-26 15:56 | 28.48695 | -14.17725 | 29835 ft | 439 kts | 221° |
| 2026-04-26 15:56 | 28.46427 | -14.19931 | 29296 ft | 418 kts | 221° |
| 2026-04-26 15:56 | 28.44241 | -14.22055 | 28431 ft | 409 kts | 221° |
| 2026-04-26 15:56 | 28.42074 | -14.24162 | 27729 ft | 410 kts | 220° |
| 2026-04-26 15:57 | 28.39907 | -14.26269 | 27152 ft | 408 kts | 221° |
| 2026-04-26 15:57 | 28.37782 | -14.28332 | 26623 ft | 405 kts | 220° |
| 2026-04-26 15:57 | 28.35640 | -14.30408 | 26128 ft | 402 kts | 220° |
| 2026-04-26 15:57 | 28.34238 | -14.31765 | 25813 ft | 399 kts | 220° |
| 2026-04-26 15:58 | 28.31424 | -14.34489 | 25159 ft | 395 kts | 220° |
| 2026-04-26 15:58 | 28.29351 | -14.36496 | 24853 ft | 387 kts | 220° |
| 2026-04-26 15:58 | 28.27317 | -14.38464 | 24498 ft | 381 kts | 220° |
| 2026-04-26 15:58 | 28.25352 | -14.40364 | 23902 ft | 374 kts | 220° |
| 2026-04-26 15:59 | 28.23369 | -14.42280 | 23392 ft | 373 kts | 220° |
| 2026-04-26 15:59 | 28.21391 | -14.44190 | 22776 ft | 373 kts | 220° |
| 2026-04-26 15:59 | 28.20084 | -14.45453 | 22446 ft | 370 kts | 220° |
| 2026-04-26 15:59 | 28.17508 | -14.47939 | 21871 ft | 363 kts | 220° |
| 2026-04-26 16:00 | 28.15592 | -14.49787 | 21345 ft | 361 kts | 220° |
| 2026-04-26 16:00 | 28.14294 | -14.51039 | 20984 ft | 361 kts | 220° |
| 2026-04-26 16:00 | 28.12416 | -14.52849 | 20579 ft | 356 kts | 220° |
| 2026-04-26 16:00 | 28.10537 | -14.54659 | 20086 ft | 354 kts | 220° |
| 2026-04-26 16:01 | 28.08660 | -14.56466 | 19528 ft | 354 kts | 220° |
| 2026-04-26 16:01 | 28.06782 | -14.58273 | 19043 ft | 352 kts | 220° |
| 2026-04-26 16:01 | 28.04923 | -14.60062 | 18626 ft | 349 kts | 220° |
| 2026-04-26 16:01 | 28.03073 | -14.61841 | 18056 ft | 349 kts | 220° |
| 2026-04-26 16:02 | 28.01222 | -14.63619 | 17518 ft | 348 kts | 220° |
| 2026-04-26 16:02 | 27.99442 | -14.65462 | 17049 ft | 344 kts | 225° |
| 2026-04-26 16:02 | 27.97801 | -14.67371 | 16572 ft | 341 kts | 226° |
| 2026-04-26 16:02 | 27.96696 | -14.68682 | 16195 ft | 341 kts | 226° |
| 2026-04-26 16:03 | 27.94535 | -14.71246 | 15557 ft | 338 kts | 226° |
| 2026-04-26 16:03 | 27.92923 | -14.73157 | 15138 ft | 334 kts | 226° |
| 2026-04-26 16:03 | 27.91320 | -14.75052 | 14627 ft | 333 kts | 226° |
| 2026-04-26 16:03 | 27.89719 | -14.76945 | 14132 ft | 332 kts | 226° |
| 2026-04-26 16:04 | 27.88128 | -14.78824 | 13664 ft | 329 kts | 226° |
| 2026-04-26 16:04 | 27.86552 | -14.80684 | 13194 ft | 325 kts | 226° |
| 2026-04-26 16:04 | 27.85005 | -14.82510 | 12604 ft | 325 kts | 226° |
| 2026-04-26 16:04 | 27.83439 | -14.84356 | 12097 ft | 324 kts | 226° |
| 2026-04-26 16:05 | 27.81886 | -14.86187 | 11630 ft | 321 kts | 226° |
| 2026-04-26 16:05 | 27.80345 | -14.88001 | 11134 ft | 318 kts | 226° |
| 2026-04-26 16:05 | 27.78812 | -14.89807 | 10624 ft | 317 kts | 226° |
| 2026-04-26 16:05 | 27.77283 | -14.91606 | 10132 ft | 316 kts | 226° |
| 2026-04-26 16:06 | 27.75769 | -14.93387 | 9666 ft | 313 kts | 226° |
| 2026-04-26 16:06 | 27.74284 | -14.95133 | 9107 ft | 312 kts | 227° |
| 2026-04-26 16:06 | 27.72781 | -14.96900 | 8582 ft | 310 kts | 227° |
| 2026-04-26 16:06 | 27.71301 | -14.98639 | 8270 ft | 302 kts | 227° |
| 2026-04-26 16:07 | 27.69931 | -15.00372 | 8036 ft | 290 kts | 236° |
| 2026-04-26 16:07 | 27.68944 | -15.02295 | 7866 ft | 277 kts | 244° |
| 2026-04-26 16:07 | 27.68117 | -15.04190 | 7694 ft | 267 kts | 245° |
| 2026-04-26 16:07 | 27.67350 | -15.05977 | 7546 ft | 257 kts | 245° |
| 2026-04-26 16:08 | 27.66588 | -15.07743 | 7399 ft | 247 kts | 246° |
| 2026-04-26 16:08 | 27.65847 | -15.09454 | 7252 ft | 238 kts | 246° |
| 2026-04-26 16:08 | 27.65125 | -15.11114 | 7023 ft | 233 kts | 246° |
| 2026-04-26 16:08 | 27.64416 | -15.12741 | 6754 ft | 229 kts | 245° |
| 2026-04-26 16:09 | 27.63856 | -15.14409 | 6410 ft | 226 kts | 261° |
| 2026-04-26 16:09 | 27.63870 | -15.16131 | 6025 ft | 221 kts | 287° |
| 2026-04-26 16:09 | 27.64352 | -15.17754 | 5715 ft | 215 kts | 295° |
| 2026-04-26 16:09 | 27.64900 | -15.19283 | 5556 ft | 205 kts | 295° |
| 2026-04-26 16:10 | 27.65424 | -15.20737 | 5392 ft | 196 kts | 296° |
| 2026-04-26 16:10 | 27.65930 | -15.22152 | 5153 ft | 192 kts | 295° |
| 2026-04-26 16:10 | 27.66428 | -15.23556 | 4857 ft | 192 kts | 295° |
| 2026-04-26 16:10 | 27.66921 | -15.24951 | 4575 ft | 190 kts | 295° |
| 2026-04-26 16:11 | 27.67409 | -15.26333 | 4274 ft | 189 kts | 295° |
| 2026-04-26 16:11 | 27.67892 | -15.27708 | 3979 ft | 188 kts | 296° |
| 2026-04-26 16:11 | 27.68367 | -15.29061 | 3708 ft | 186 kts | 296° |
| 2026-04-26 16:11 | 27.68841 | -15.30416 | 3423 ft | 185 kts | 296° |
| 2026-04-26 16:12 | 27.69315 | -15.31770 | 3128 ft | 184 kts | 296° |
| 2026-04-26 16:12 | 27.69782 | -15.33108 | 2927 ft | 183 kts | 296° |
| 2026-04-26 16:12 | 27.70712 | -15.35766 | 2649 ft | 182 kts | 296° |
| 2026-04-26 16:13 | 27.71178 | -15.37098 | 2571 ft | 183 kts | 296° |
| 2026-04-26 16:13 | 27.71645 | -15.38433 | 2495 ft | 182 kts | 296° |
| 2026-04-26 16:13 | 27.72107 | -15.39761 | 2422 ft | 181 kts | 297° |
| 2026-04-26 16:13 | 27.72569 | -15.41085 | 2344 ft | 181 kts | 296° |
| 2026-04-26 16:14 | 27.73111 | -15.42364 | 2260 ft | 179 kts | 306° |
| 2026-04-26 16:14 | 27.73985 | -15.43332 | 2181 ft | 175 kts | 330° |
| 2026-04-26 16:14 | 27.76145 | -15.44533 | 2051 ft | 170 kts | 338° |
| 2026-04-26 16:15 | 27.77223 | -15.45036 | 1954 ft | 162 kts | 345° |
| 2026-04-26 16:15 | 27.78241 | -15.45144 | 1910 ft | 135 kts | 7° |
| 2026-04-26 16:15 | 27.79080 | -15.44865 | 1924 ft | 121 kts | 18° |
| 2026-04-26 16:16 | 27.80624 | -15.44197 | 1936 ft | 120 kts | 19° |
| 2026-04-26 16:16 | 27.81398 | -15.43864 | 1935 ft | 117 kts | 19° |
| 2026-04-26 16:16 | 27.82157 | -15.43528 | 1921 ft | 117 kts | 20° |
| 2026-04-26 16:16 | 27.82914 | -15.43190 | 1937 ft | 117 kts | 18° |
| 2026-04-26 16:17 | 27.83684 | -15.42857 | 1858 ft | 119 kts | 17° |
| 2026-04-26 16:17 | 27.84446 | -15.42528 | 1696 ft | 116 kts | 19° |
| 2026-04-26 16:17 | 27.85197 | -15.42196 | 1534 ft | 115 kts | 19° |
| 2026-04-26 16:17 | 27.85945 | -15.41865 | 1376 ft | 115 kts | 19° |
| 2026-04-26 16:18 | 27.86691 | -15.41534 | 1221 ft | 115 kts | 18° |
| 2026-04-26 16:18 | 27.88209 | -15.40863 | 966 ft | 121 kts | 18° |
| 2026-04-26 16:19 | 27.89708 | -15.40205 | 600 ft | 111 kts | 22° |
| 2026-04-26 16:19 | 27.90416 | -15.39894 | 421 ft | 107 kts | 23° |
| 2026-04-26 16:19 | 27.91581 | -15.39370 | 164 ft | 107 kts | 21° |
| 2026-04-26 16:20 | 27.92470 | -15.38978 | 66 ft | 90 kts | 21° |
| 2026-04-26 16:20 | 27.93372 | -15.38579 | 53 ft | 54 kts | 21° |
| 2026-04-26 16:20 | 27.93684 | -15.38445 | 52 ft | 44 kts | 15° |
| 2026-04-26 16:21 | 27.93885 | -15.38426 | 51 ft | 15 kts | 354° |
| 2026-04-26 16:21 | 27.93977 | -15.38442 | 48 ft | 14 kts | 349° |
| 2026-04-26 16:21 | 27.94048 | -15.38499 | 46 ft | 13 kts | 302° |
| 2026-04-26 16:21 | 27.94076 | -15.38585 | 46 ft | 11 kts | 270° |
| 2026-04-26 16:22 | 27.94030 | -15.38645 | 45 ft | 11 kts | 204° |
| 2026-04-26 16:22 | 27.93959 | -15.38678 | 48 ft | 10 kts | 202° |
| 2026-04-26 16:22 | 27.93924 | -15.38704 | 44 ft | 3 kts | 240° |
| 2026-04-26 16:22 | 27.93926 | -15.38726 | 47 ft | 3 kts | 286° |
| 2026-04-26 16:23 | 27.93934 | -15.38750 | 48 ft | 2 kts | 291° |
| 2026-04-26 16:23 | 27.93935 | -15.38754 | 48 ft | 0 kts | 291° |
| 2026-04-26 16:23 | 27.93939 | -15.38765 | 49 ft | 0 kts | 291° |